Time;durP1;ratioP1;P1;durP2;ratioP2;P2;SDS_P1;SDS_P2;PMS_P1;PMS_P2;Temp;Humidity;BMP_temperature;BMP_pressure;BME280_temperature;BME280_humidity;BME280_pressure;Samples;Min_cycle;Max_cycle;Signal;HPM_P1;HPM_P2
2022/08/23 00:01:16;;;;;;;8.13;4.20;;;;;;;18.22;70.43;101279.34;5047909;28;20082;-77
2022/08/23 00:03:42;;;;;;;7.40;4.30;;;;;;;18.14;71.14;101261.47;5048707;28;20033;-77
2022/08/23 00:06:09;;;;;;;8.68;4.40;;;;;;;18.10;71.42;101276.91;5079518;28;20033;-77
2022/08/23 00:08:35;;;;;;;10.93;4.50;;;;;;;18.03;72.00;101267.84;5047013;28;20055;-77
2022/08/23 00:11:01;;;;;;;9.32;4.28;;;;;;;18.03;72.07;101262.53;5047610;28;20108;-76
2022/08/23 00:13:27;;;;;;;9.90;5.07;;;;;;;17.94;72.17;101276.72;5045560;28;20100;-77
2022/08/23 00:15:53;;;;;;;7.28;4.70;;;;;;;17.92;71.97;101268.06;5048628;28;20044;-77
2022/08/23 00:18:19;;;;;;;10.43;5.10;;;;;;;17.82;72.46;101278.78;5048072;28;20131;-77
2022/08/23 00:20:45;;;;;;;12.68;5.38;;;;;;;17.70;72.68;101268.50;5048686;28;20041;-77
2022/08/23 00:23:10;;;;;;;13.70;5.22;;;;;;;17.70;73.10;101263.19;5047649;28;20021;-77
2022/08/23 00:25:36;;;;;;;8.93;5.10;;;;;;;17.68;72.88;101265.16;5049597;28;20021;-76
2022/08/23 00:28:01;;;;;;;9.45;5.20;;;;;;;17.61;73.51;101270.19;5046428;28;20107;-77
2022/08/23 00:30:27;;;;;;;9.52;4.97;;;;;;;17.55;73.89;101276.94;5046767;28;20033;-76
2022/08/23 00:32:52;;;;;;;13.15;5.35;;;;;;;17.53;73.83;101268.25;5048737;28;20021;-76
2022/08/23 00:35:19;;;;;;;9.15;4.93;;;;;;;17.58;74.26;101270.47;5047363;28;20163;-76
2022/08/23 00:37:45;;;;;;;9.88;5.05;;;;;;;17.44;74.75;101274.47;5047750;28;20036;-75
2022/08/23 00:40:13;;;;;;;11.88;5.10;;;;;;;17.35;75.51;101274.53;5046740;28;20052;-76
2022/08/23 00:48:43;;;;;;;11.23;5.10;;;;;;;17.32;76.05;101270.34;5027609;28;20083;-76
2022/08/23 00:51:17;;;;;;;9.95;4.68;;;;;;;17.22;76.57;101275.72;5028644;28;20025;-76
2022/08/23 00:53:47;;;;;;;7.80;4.88;;;;;;;17.11;77.25;101269.72;5048061;28;20025;-76
2022/08/23 00:56:17;;;;;;;8.82;5.15;;;;;;;17.10;77.53;101270.69;5046804;28;20504;-75
2022/08/23 00:58:44;;;;;;;11.43;4.90;;;;;;;17.08;77.62;101276.16;5047466;28;20493;-76
2022/08/23 01:01:10;;;;;;;9.38;4.97;;;;;;;17.14;76.99;101272.06;5027300;28;20013;-76
2022/08/23 01:03:40;;;;;;;8.18;5.10;;;;;;;17.07;77.97;101276.31;5046973;28;20024;-77
2022/08/23 01:06:18;;;;;;;9.30;5.00;;;;;;;17.01;78.00;101283.03;5047129;28;20033;-77
2022/08/23 01:08:48;;;;;;;10.82;5.35;;;;;;;16.96;78.18;101279.97;5047143;28;20043;-77
2022/08/23 01:11:22;;;;;;;9.15;4.85;;;;;;;16.95;78.57;101274.81;5045966;28;20557;-76
2022/08/23 01:13:57;;;;;;;9.35;4.63;;;;;;;16.99;78.15;101279.69;5048128;28;20489;-76
2022/08/23 01:16:27;;;;;;;9.43;5.75;;;;;;;16.91;78.50;101277.75;5047235;28;20013;-77
2022/08/23 01:18:54;;;;;;;12.23;5.55;;;;;;;16.88;79.12;101279.88;5045918;28;20025;-76
2022/08/23 01:21:31;;;;;;;10.27;5.57;;;;;;;16.82;79.19;101278.63;5031233;28;20024;-77
2022/08/23 01:24:02;;;;;;;8.95;4.97;;;;;;;16.88;78.70;101278.03;5047737;28;20025;-75
2022/08/23 01:26:33;;;;;;;8.60;4.78;;;;;;;16.84;79.26;101281.97;5049805;28;20387;-75
2022/08/23 01:29:02;;;;;;;10.32;4.80;;;;;;;16.76;79.73;101288.97;5051706;28;20156;-77
2022/08/23 01:31:28;;;;;;;8.40;4.88;;;;;;;16.71;80.43;101286.72;5052179;28;20056;-77
2022/08/23 01:33:57;;;;;;;10.15;5.68;;;;;;;16.73;80.26;101290.09;5051074;28;20040;-76
2022/08/23 01:36:23;;;;;;;10.82;5.15;;;;;;;16.63;80.16;101288.41;5051287;28;20017;-74
2022/08/23 01:38:48;;;;;;;7.88;5.38;;;;;;;16.59;80.64;101288.69;5050914;28;20028;-77
2022/08/23 01:41:14;;;;;;;9.80;5.40;;;;;;;16.61;80.88;101284.06;5051333;28;20032;-74
2022/08/23 01:43:39;;;;;;;13.27;5.30;;;;;;;16.63;81.10;101294.53;5052286;28;20128;-74
2022/08/23 01:46:11;;;;;;;12.70;5.80;;;;;;;16.55;81.32;101291.75;5051757;28;20025;-76
2022/08/23 01:48:37;;;;;;;10.23;5.05;;;;;;;16.61;80.92;101296.50;5050446;28;20395;-76
2022/08/23 01:51:02;;;;;;;12.15;5.20;;;;;;;16.52;81.26;101297.38;5049996;28;20029;-76
2022/08/23 01:53:28;;;;;;;15.05;5.45;;;;;;;16.60;81.25;101294.84;5051814;28;20020;-77
2022/08/23 01:55:53;;;;;;;11.27;5.38;;;;;;;16.52;81.41;101286.75;5051565;28;20044;-77
2022/08/23 01:58:20;;;;;;;11.10;5.80;;;;;;;16.55;81.49;101291.75;5051406;28;20021;-75
2022/08/23 02:00:46;;;;;;;8.85;5.60;;;;;;;16.51;81.44;101290.38;5052221;28;20497;-77
2022/08/23 02:03:12;;;;;;;10.30;5.88;;;;;;;16.51;81.51;101282.41;5051878;28;20096;-76
2022/08/23 02:05:39;;;;;;;13.23;6.40;;;;;;;16.56;81.34;101286.31;5051249;28;20483;-75
2022/08/23 02:10:58;;;;;;;9.65;6.18;;;;;;;16.55;81.21;101281.97;5015176;28;20068;-75
2022/08/23 02:13:23;;;;;;;13.18;5.80;;;;;;;16.61;80.82;101285.88;5031548;28;20056;-76
2022/08/23 02:15:50;;;;;;;10.95;6.32;;;;;;;16.59;80.70;101290.50;5032292;28;20029;-75
2022/08/23 02:18:18;;;;;;;10.02;6.30;;;;;;;16.62;81.14;101292.88;5031851;28;20068;-75
2022/08/23 02:20:44;;;;;;;11.05;6.07;;;;;;;16.56;81.53;101296.94;5051384;28;20044;-75
2022/08/23 02:23:10;;;;;;;10.07;6.30;;;;;;;16.54;81.84;101290.94;5050944;28;20066;-76
2022/08/23 02:25:36;;;;;;;10.75;6.20;;;;;;;16.57;81.72;101287.16;5047857;28;20528;-76
2022/08/23 02:28:02;;;;;;;13.85;6.75;;;;;;;16.54;81.74;101282.97;5048789;28;20102;-76
2022/08/23 02:30:27;;;;;;;12.10;7.05;;;;;;;16.51;82.29;101285.06;5049324;28;20021;-76
2022/08/23 02:32:52;;;;;;;10.73;6.32;;;;;;;16.56;81.82;101280.16;5031942;28;20115;-76
2022/08/23 02:35:18;;;;;;;11.52;6.50;;;;;;;16.52;82.16;101276.94;5049471;28;20096;-76
2022/08/23 02:37:43;;;;;;;8.93;6.40;;;;;;;16.57;81.84;101288.00;5050008;28;20033;-75
2022/08/23 02:40:09;;;;;;;12.02;6.10;;;;;;;16.60;81.97;101286.88;5048364;28;20020;-75
2022/08/23 02:42:34;;;;;;;12.32;6.03;;;;;;;16.63;81.86;101277.78;5049803;28;20084;-76
2022/08/23 02:44:59;;;;;;;9.38;6.15;;;;;;;16.59;82.40;101282.53;5048859;28;20098;-76
2022/08/23 02:47:25;;;;;;;11.07;6.65;;;;;;;16.61;82.15;101280.56;5050686;28;20128;-76
2022/08/23 02:49:52;;;;;;;12.52;6.75;;;;;;;16.57;82.33;101274.69;5051182;28;20024;-76
2022/08/23 02:52:17;;;;;;;11.07;6.63;;;;;;;16.55;82.63;101286.44;5050989;28;20120;-76
2022/08/23 02:54:43;;;;;;;11.98;7.00;;;;;;;16.53;82.96;101293.72;5050250;28;20551;-76
2022/08/23 02:57:08;;;;;;;11.73;6.15;;;;;;;16.59;83.02;101293.16;5049828;28;20023;-76
2022/08/23 02:59:34;;;;;;;8.90;6.32;;;;;;;16.59;82.78;101298.47;5051195;28;20490;-74
2022/08/23 03:01:59;;;;;;;10.27;6.82;;;;;;;16.59;82.65;101295.81;5048332;28;20451;-76
2022/08/23 03:04:24;;;;;;;10.98;6.88;;;;;;;16.56;82.68;101296.94;5029776;28;20116;-74
2022/08/23 03:06:50;;;;;;;9.95;6.95;;;;;;;16.54;82.74;101296.25;5046302;28;20118;-76
2022/08/23 03:09:15;;;;;;;11.88;7.38;;;;;;;16.59;82.89;101293.16;5029808;28;20029;-77
2022/08/23 03:11:48;;;;;;;15.95;7.40;;;;;;;16.52;83.36;101302.69;5030858;28;20025;-74
2022/08/23 03:14:13;;;;;;;;;;;;;;;16.70;80.37;101301.00;5030105;28;20387;-76
2022/08/23 03:16:39;;;;;;;16.50;12.53;;;;;;;16.50;83.21;101301.97;5035896;28;19909;-77
2022/08/23 03:19:05;;;;;;;31.25;22.23;;;;;;;16.49;83.72;101302.97;5048312;28;20299;-77
2022/08/23 03:21:30;;;;;;;12.65;8.65;;;;;;;16.41;84.42;101294.81;5046230;28;20039;-77
2022/08/23 03:23:56;;;;;;;13.35;8.13;;;;;;;16.41;84.85;101305.44;5045367;28;20048;-77
2022/08/23 03:26:21;;;;;;;12.70;8.00;;;;;;;16.38;84.83;101300.41;5048101;28;20481;-76
2022/08/23 03:28:47;;;;;;;11.57;7.03;;;;;;;16.39;85.20;101302.09;5048270;28;20025;-76
2022/08/23 03:31:14;;;;;;;16.08;7.97;;;;;;;16.40;85.37;101299.31;5046271;28;20036;-76
2022/08/23 03:33:40;;;;;;;11.65;7.90;;;;;;;16.43;85.65;101303.53;5048888;28;20044;-76
2022/08/23 03:36:09;;;;;;;15.45;8.30;;;;;;;16.43;85.46;101307.03;5048261;28;20364;-76
2022/08/23 03:38:36;;;;;;;13.07;7.35;;;;;;;16.49;85.01;101303.78;5033902;28;20102;-77
2022/08/23 03:41:02;;;;;;;12.30;7.72;;;;;;;16.51;84.91;101306.31;5048072;28;20139;-76
2022/08/23 03:43:28;;;;;;;10.98;8.50;;;;;;;16.49;85.08;101308.28;5047778;28;20502;-77
2022/08/23 03:45:53;;;;;;;13.07;8.32;;;;;;;16.50;84.85;101309.94;5048535;28;20036;-74
2022/08/23 03:48:18;;;;;;;19.13;9.80;;;;;;;16.52;84.22;101311.47;5047530;28;20029;-76
2022/08/23 03:50:44;;;;;;;16.58;9.38;;;;;;;16.53;83.94;101304.34;5046188;28;20028;-76
2022/08/23 03:53:10;;;;;;;19.45;9.95;;;;;;;16.49;84.32;101302.97;5048943;28;20021;-77
2022/08/23 03:55:35;;;;;;;11.30;8.00;;;;;;;16.53;84.87;101310.50;5048658;28;20486;-74
2022/08/23 03:58:01;;;;;;;13.63;8.00;;;;;;;16.49;85.39;101309.09;5079325;28;20036;-76
2022/08/23 04:00:26;;;;;;;14.05;8.35;;;;;;;16.51;84.85;101312.47;5049964;28;20021;-77
2022/08/23 04:02:54;;;;;;;14.60;8.90;;;;;;;16.53;85.13;101314.97;5047962;28;20029;-77
2022/08/23 04:05:20;;;;;;;12.85;8.82;;;;;;;16.49;85.40;101314.44;5046892;28;20017;-77
2022/08/23 04:07:46;;;;;;;13.27;8.98;;;;;;;16.47;85.11;101320.84;5048846;28;20543;-77
2022/08/23 04:10:13;;;;;;;10.68;9.50;;;;;;;16.49;85.27;101325.06;5048034;28;20036;-77
2022/08/23 04:12:40;;;;;;;15.30;9.80;;;;;;;16.49;85.44;101311.75;5047755;28;20501;-77
2022/08/23 04:15:06;;;;;;;11.38;8.32;;;;;;;16.53;85.71;101312.31;5047352;28;20032;-77
2022/08/23 04:17:31;;;;;;;13.02;8.82;;;;;;;16.51;85.71;101312.47;5048121;28;20388;-76
2022/08/23 04:19:56;;;;;;;12.75;8.52;;;;;;;16.54;85.71;101312.19;5045922;28;20055;-77
2022/08/23 04:22:22;;;;;;;11.25;8.75;;;;;;;16.55;85.61;101318.34;5047997;28;20403;-76
2022/08/23 04:24:48;;;;;;;13.20;9.10;;;;;;;16.56;85.83;101315.53;5048005;28;20035;-77
2022/08/23 04:27:13;;;;;;;12.77;8.63;;;;;;;16.57;85.45;101319.03;5046546;28;20049;-76
2022/08/23 04:29:40;;;;;;;16.15;9.10;;;;;;;16.55;85.67;101329.78;5046445;28;20075;-77
2022/08/23 04:32:10;;;;;;;11.50;9.02;;;;;;;16.56;86.21;101344.75;5046323;28;20491;-76
2022/08/23 04:34:38;;;;;;;13.15;8.50;;;;;;;16.61;85.81;101331.06;5047248;28;20559;-76
2022/08/23 04:37:04;;;;;;;13.85;9.20;;;;;;;16.60;86.12;101337.34;5047398;28;20482;-73
2022/08/23 04:42:16;;;;;;;11.55;8.25;;;;;;;16.60;86.36;101332.03;5047504;28;20036;-74
2022/08/23 04:42:18;;;;;;;12.20;8.98;;;;;;;16.58;86.59;101339.31;5047182;28;20044;-74
2022/08/23 04:44:43;;;;;;;15.13;8.90;;;;;;;16.55;86.49;101344.91;5047871;28;20108;-74
2022/08/23 04:47:08;;;;;;;15.88;8.63;;;;;;;16.56;86.97;101336.78;5046381;28;20108;-73
2022/08/23 04:49:34;;;;;;;14.07;9.32;;;;;;;16.61;87.16;101339.03;5048346;28;20478;-74
2022/08/23 04:51:59;;;;;;;12.85;8.68;;;;;;;16.59;87.19;101340.97;5047542;28;20025;-75
2022/08/23 04:54:25;;;;;;;13.43;8.65;;;;;;;16.62;86.74;101338.03;5046959;28;20029;-75
2022/08/23 04:56:51;;;;;;;12.98;9.27;;;;;;;16.65;86.98;101345.72;5047401;28;20028;-75
2022/08/23 04:59:16;;;;;;;14.25;9.20;;;;;;;16.61;87.01;101352.31;5046280;28;20028;-74
2022/08/23 05:01:42;;;;;;;13.02;8.95;;;;;;;16.64;87.00;101349.38;5043255;28;20078;-74
2022/08/23 05:04:08;;;;;;;13.60;9.25;;;;;;;16.64;87.26;101356.50;5072807;28;20140;-75
2022/08/23 05:06:33;;;;;;;12.32;8.95;;;;;;;16.67;87.51;101349.13;5051847;28;20372;-75
2022/08/23 05:09:00;;;;;;;14.10;8.75;;;;;;;16.68;87.34;101356.09;5051688;28;20032;-75
2022/08/23 05:11:27;;;;;;;12.32;8.55;;;;;;;16.70;88.03;101354.16;5053251;28;20474;-75
2022/08/23 05:13:52;;;;;;;13.55;8.60;;;;;;;16.69;88.09;101364.91;5051935;28;20530;-77
2022/08/23 05:16:18;;;;;;;13.65;8.30;;;;;;;16.72;87.79;101354.84;5051905;28;20111;-77
2022/08/23 05:18:43;;;;;;;16.05;8.40;;;;;;;16.78;87.43;101354.28;5051379;28;20035;-75
2022/08/23 05:21:13;;;;;;;10.35;8.68;;;;;;;16.85;86.81;101357.22;5051323;28;20031;-74
2022/08/23 05:23:38;;;;;;;14.00;9.18;;;;;;;16.92;85.90;101348.53;5048019;28;20523;-76
2022/08/23 05:26:04;;;;;;;11.93;8.73;;;;;;;16.96;86.41;101353.56;5049125;28;20032;-77
2022/08/23 05:28:32;;;;;;;15.70;9.23;;;;;;;17.01;86.12;101351.31;5050968;28;20055;-77
2022/08/23 05:31:04;;;;;;;15.20;9.60;;;;;;;17.08;84.76;101355.09;5043221;28;20056;-77
2022/08/23 05:33:32;;;;;;;11.93;9.13;;;;;;;17.12;84.68;101364.44;5050667;28;20029;-76
2022/08/23 05:35:57;;;;;;;13.63;9.30;;;;;;;17.18;84.50;101363.88;5049643;28;20028;-76
2022/08/23 05:38:23;;;;;;;13.05;8.82;;;;;;;17.24;85.84;101373.97;5049462;28;20052;-76
2022/08/23 05:40:51;;;;;;;9.80;8.30;;;;;;;17.33;85.39;101373.09;5049681;28;20028;-77
2022/08/23 05:43:17;;;;;;;14.05;9.05;;;;;;;17.36;83.35;101385.25;5048661;28;20052;-77
2022/08/23 05:45:43;;;;;;;14.50;9.23;;;;;;;17.39;83.37;101388.47;5050905;28;20025;-77
2022/08/23 05:48:09;;;;;;;10.90;9.25;;;;;;;17.38;83.09;101392.13;5049950;28;20013;-76
2022/08/23 05:50:36;;;;;;;15.27;9.57;;;;;;;17.42;83.03;101393.50;5048790;28;20029;-77
2022/08/23 05:53:03;;;;;;;15.80;8.80;;;;;;;17.44;83.28;101396.00;5050214;28;20260;-77
2022/08/23 05:55:28;;;;;;;15.70;9.45;;;;;;;17.54;83.28;101392.34;5049669;28;20142;-77
2022/08/23 05:57:54;;;;;;;16.00;9.07;;;;;;;17.60;82.86;101396.22;5048725;28;20033;-76
2022/08/23 06:00:20;;;;;;;19.48;9.07;;;;;;;17.68;82.12;101392.91;5051385;28;20029;-77
2022/08/23 06:02:46;;;;;;;14.32;8.98;;;;;;;17.71;81.77;101397.94;5050668;28;20045;-77
2022/08/23 06:05:12;;;;;;;15.95;9.30;;;;;;;17.72;82.28;101397.78;5048979;28;20135;-77
2022/08/23 06:07:38;;;;;;;14.82;9.27;;;;;;;17.77;81.70;101397.34;5051852;28;20021;-77
2022/08/23 06:10:08;;;;;;;16.08;9.40;;;;;;;17.87;80.99;101403.44;5051083;28;20108;-77
2022/08/23 06:12:33;;;;;;;13.35;9.65;;;;;;;17.94;80.38;101401.03;5050857;28;20433;-77
2022/08/23 06:14:59;;;;;;;16.85;9.65;;;;;;;17.93;80.31;101397.53;5049771;28;20021;-77
2022/08/23 06:17:25;;;;;;;14.57;10.18;;;;;;;17.98;80.23;101400.59;5051428;28;20114;-78
2022/08/23 06:19:50;;;;;;;12.07;9.60;;;;;;;17.96;80.09;101399.06;5050973;28;20029;-77
2022/08/23 06:22:16;;;;;;;16.52;9.73;;;;;;;17.96;80.38;101410.53;5050783;28;20436;-77
2022/08/23 06:24:41;;;;;;;15.13;10.20;;;;;;;17.97;80.38;101412.22;5050008;28;20044;-77
2022/08/23 06:27:07;;;;;;;19.45;9.68;;;;;;;18.08;80.93;101412.06;5049530;28;20108;-78
2022/08/23 06:29:32;;;;;;;16.42;9.68;;;;;;;18.16;80.75;101417.47;5050343;28;20029;-77
2022/08/23 06:31:58;;;;;;;15.95;10.40;;;;;;;18.25;79.86;101407.75;5044308;28;20056;-76
2022/08/23 06:34:31;;;;;;;14.40;10.23;;;;;;;18.35;79.30;101408.50;5048046;28;20021;-76
2022/08/23 06:37:01;;;;;;;15.85;10.20;;;;;;;18.42;79.51;101408.78;5048529;28;20013;-76
2022/08/23 06:39:30;;;;;;;17.48;10.52;;;;;;;18.43;79.21;101410.44;5049537;28;20031;-76
2022/08/23 06:42:10;;;;;;;14.77;10.50;;;;;;;18.52;79.56;101409.53;5049871;28;20109;-76
2022/08/23 06:44:36;;;;;;;18.00;11.32;;;;;;;18.60;78.26;101409.63;5051280;28;20037;-77
2022/08/23 06:47:03;;;;;;;17.75;11.95;;;;;;;18.70;77.72;101410.41;5047539;28;20036;-77
2022/08/23 06:49:29;;;;;;;19.45;11.65;;;;;;;18.84;76.58;101409.03;5030489;28;20546;-74
2022/08/23 06:51:58;;;;;;;18.42;12.35;;;;;;;18.96;76.48;101402.47;5047033;28;20155;-74
2022/08/23 06:54:27;;;;;;;17.45;12.43;;;;;;;19.02;75.45;101401.00;5049776;28;20028;-77
2022/08/23 06:56:54;;;;;;;18.63;11.95;;;;;;;19.16;75.47;101397.78;5049887;28;20024;-78
2022/08/23 06:59:20;;;;;;;18.63;12.38;;;;;;;19.23;75.02;101404.19;5049594;28;20390;-77
2022/08/23 07:01:53;;;;;;;18.63;12.20;;;;;;;19.28;75.71;101401.88;5048679;28;20021;-78
2022/08/23 07:04:22;;;;;;;21.08;12.90;;;;;;;19.50;74.43;101399.66;5048867;28;20075;-78
2022/08/23 07:06:47;;;;;;;20.63;13.23;;;;;;;19.66;73.53;101402.47;5050111;28;20028;-78
2022/08/23 07:09:13;;;;;;;20.65;12.63;;;;;;;19.85;72.75;101404.91;5048296;28;20036;-78
2022/08/23 07:11:40;;;;;;;19.45;12.55;;;;;;;20.08;72.86;101405.16;5051116;28;20092;-75
2022/08/23 07:14:09;;;;;;;18.63;13.10;;;;;;;20.31;71.18;101402.72;5050719;28;20479;-76
2022/08/23 07:16:40;;;;;;;21.13;12.82;;;;;;;20.57;69.43;101400.81;5051216;28;20025;-78
2022/08/23 07:19:07;;;;;;;22.05;13.93;;;;;;;20.79;67.96;101403.81;5030447;28;20478;-77
2022/08/23 07:21:33;;;;;;;21.70;13.50;;;;;;;21.02;66.78;101410.19;5048801;28;20028;-77
2022/08/23 07:23:58;;;;;;;20.13;12.77;;;;;;;21.19;66.58;101408.34;5049243;28;20031;-77
2022/08/23 07:26:24;;;;;;;23.17;12.05;;;;;;;21.43;66.30;101415.53;5049754;28;20475;-78
2022/08/23 07:28:49;;;;;;;24.58;12.05;;;;;;;21.68;64.57;101417.16;5047239;28;20049;-78
2022/08/23 07:31:29;;;;;;;17.48;11.52;;;;;;;21.92;64.56;101423.44;5049978;28;20064;-77
2022/08/23 07:33:57;;;;;;;19.80;12.48;;;;;;;22.07;62.85;101419.06;5051924;28;20402;-76
2022/08/23 07:36:25;;;;;;;18.50;12.02;;;;;;;22.31;62.88;101420.78;5054525;28;20025;-77
2022/08/23 07:38:54;;;;;;;22.60;12.30;;;;;;;22.59;60.97;101426.47;5051263;28;20033;-76
2022/08/23 07:41:22;;;;;;;23.45;11.90;;;;;;;22.64;62.23;101424.94;5051730;28;20029;-76
2022/08/23 07:43:48;;;;;;;23.95;12.38;;;;;;;23.05;60.70;101428.16;5038591;28;20395;-76
2022/08/23 07:46:13;;;;;;;15.93;11.43;;;;;;;23.13;60.32;101425.41;5034470;28;20013;-76
2022/08/23 07:48:39;;;;;;;19.33;11.70;;;;;;;23.35;60.02;101430.94;5050462;28;20037;-76
2022/08/23 07:51:08;;;;;;;24.45;11.57;;;;;;;23.53;59.09;101425.19;5051521;28;20060;-74
2022/08/23 07:53:34;;;;;;;23.38;11.82;;;;;;;23.71;57.41;101426.56;5059462;28;20059;-75
2022/08/23 07:56:04;;;;;;;20.02;10.93;;;;;;;23.94;58.30;101430.97;5051397;28;20026;-74
2022/08/23 07:58:29;;;;;;;19.20;11.18;;;;;;;24.19;57.18;101431.50;5041053;28;20028;-74
2022/08/23 08:00:54;;;;;;;17.02;11.05;;;;;;;24.56;55.85;101427.84;5042853;28;20057;-74
2022/08/23 08:03:20;;;;;;;20.30;11.32;;;;;;;24.75;55.14;101427.19;5045002;28;20483;-76
2022/08/23 08:05:46;;;;;;;21.52;11.45;;;;;;;24.82;54.50;101430.81;5049394;28;20025;-76
2022/08/23 08:08:11;;;;;;;19.67;11.23;;;;;;;25.12;54.13;101433.34;5053024;28;20273;-77
2022/08/23 08:10:40;;;;;;;25.45;11.93;;;;;;;25.22;53.07;101431.19;5050918;28;20040;-78
2022/08/23 08:13:06;;;;;;;14.45;10.23;;;;;;;25.26;54.65;101435.16;5034098;28;20229;-77
2022/08/23 08:15:32;;;;;;;24.67;11.90;;;;;;;25.42;52.32;101444.78;5061100;28;20120;-77
2022/08/23 08:17:57;;;;;;;19.48;12.07;;;;;;;25.38;51.81;101441.66;5066904;28;20029;-77
2022/08/23 08:20:22;;;;;;;20.85;10.82;;;;;;;25.39;53.25;101440.63;5062408;28;20044;-76
2022/08/23 08:22:49;;;;;;;16.95;10.55;;;;;;;25.24;53.79;101448.81;5065578;28;20023;-76
2022/08/23 08:25:15;;;;;;;18.08;10.65;;;;;;;25.30;55.25;101444.50;5063897;28;20007;-75
2022/08/23 08:27:41;;;;;;;19.95;9.57;;;;;;;25.41;53.24;101449.34;5060021;28;20037;-73
2022/08/23 08:30:09;;;;;;;19.92;9.20;;;;;;;25.70;53.13;101436.72;5063044;28;20017;-75
2022/08/23 08:32:35;;;;;;;19.02;10.77;;;;;;;25.68;52.17;101436.94;5060729;28;20029;-76
2022/08/23 08:35:01;;;;;;;24.00;9.88;;;;;;;25.86;52.64;101442.63;5056998;28;20087;-75
2022/08/23 08:37:26;;;;;;;16.42;10.02;;;;;;;25.98;52.85;101442.88;5050649;28;20028;-76
2022/08/23 08:39:54;;;;;;;29.02;10.32;;;;;;;26.17;53.13;101444.84;5049793;28;20471;-75
2022/08/23 08:42:44;;;;;;;21.00;8.77;;;;;;;26.58;52.63;101446.66;5048487;28;20047;-75
2022/08/23 08:45:31;;;;;;;24.73;10.40;;;;;;;26.35;50.00;101448.88;5049407;28;20029;-75
2022/08/23 08:48:07;;;;;;;37.17;9.07;;;;;;;26.24;52.21;101453.78;5048400;28;20032;-76
2022/08/23 08:50:45;;;;;;;25.52;8.82;;;;;;;26.60;51.03;101449.16;5032495;28;20104;-77
2022/08/23 08:53:29;;;;;;;32.97;8.95;;;;;;;26.86;51.82;101451.94;5049982;28;20048;-78
2022/08/23 08:56:06;;;;;;;20.42;8.20;;;;;;;26.96;49.33;101457.75;5050097;28;20044;-76
2022/08/23 08:58:49;;;;;;;20.20;8.18;;;;;;;27.17;50.58;101451.34;5050405;28;20029;-77
2022/08/23 09:01:20;;;;;;;15.52;7.43;;;;;;;27.12;48.37;101456.53;5081559;28;20032;-77
2022/08/23 09:03:47;;;;;;;13.32;6.18;;;;;;;27.45;48.35;101457.34;5048833;28;20371;-76
2022/08/23 09:06:46;;;;;;;13.13;5.88;;;;;;;27.39;49.41;101468.19;5048059;28;20025;-76
2022/08/23 09:09:35;;;;;;;11.27;4.93;;;;;;;27.16;47.63;101455.06;5029738;28;20036;-77
2022/08/23 09:12:22;;;;;;;11.30;4.32;;;;;;;27.14;47.22;101468.78;5029836;28;20052;-76
2022/08/23 09:15:32;;;;;;;10.93;4.05;;;;;;;27.15;49.58;101469.63;5030000;28;20372;-76
2022/08/23 09:18:06;;;;;;;14.45;4.68;;;;;;;27.04;49.56;101462.16;4987957;28;20221;-77
2022/08/23 09:20:32;;;;;;;16.70;4.60;;;;;;;27.22;47.83;101464.22;4981724;28;20392;-76
2022/08/23 09:23:10;;;;;;;15.23;4.55;;;;;;;27.04;47.50;101470.25;5002914;28;20041;-76
2022/08/23 09:25:35;;;;;;;12.13;4.75;;;;;;;26.80;47.03;101461.66;5029759;28;20032;-77
2022/08/23 09:28:01;;;;;;;8.85;3.88;;;;;;;26.76;49.44;101468.50;5028707;28;20026;-77
2022/08/23 09:30:48;;;;;;;10.27;5.03;;;;;;;26.87;48.55;101468.97;5069411;28;20051;-77
2022/08/23 09:33:24;;;;;;;11.88;5.43;;;;;;;27.07;48.46;101477.94;5048661;28;20059;-77
2022/08/23 09:36:22;;;;;;;13.02;6.10;;;;;;;27.31;48.83;101474.63;5049677;28;20546;-77
2022/08/23 09:38:58;;;;;;;12.13;5.53;;;;;;;27.24;49.29;101472.97;5048731;28;20175;-77
2022/08/23 09:41:27;;;;;;;18.40;5.13;;;;;;;27.41;47.94;101474.19;5049744;28;20456;-77
2022/08/23 09:43:54;;;;;;;9.75;4.93;;;;;;;27.63;46.68;101459.47;5049645;28;20045;-77
2022/08/23 09:46:34;;;;;;;11.25;5.47;;;;;;;27.82;47.04;101459.63;5050499;28;20502;-77
2022/08/23 09:49:18;;;;;;;9.02;4.55;;;;;;;27.80;47.77;101465.22;5031949;28;20395;-77
2022/08/23 09:51:43;;;;;;;13.05;5.10;;;;;;;27.85;46.48;101459.19;5032917;28;20092;-77
2022/08/23 09:54:16;;;;;;;13.32;5.15;;;;;;;28.09;46.09;101455.78;5041417;28;20025;-77
2022/08/23 09:56:48;;;;;;;10.73;3.80;;;;;;;28.38;45.50;101459.84;5049670;28;20025;-77
2022/08/23 09:59:30;;;;;;;10.38;3.55;;;;;;;28.42;44.58;101452.97;5051749;28;20048;-77
2022/08/23 10:01:58;;;;;;;9.68;2.88;;;;;;;28.57;44.02;101452.66;5050901;28;20036;-77
2022/08/23 10:04:40;;;;;;;9.65;2.47;;;;;;;28.52;43.52;101449.78;5050952;28;20013;-77
2022/08/23 10:07:37;;;;;;;8.13;2.63;;;;;;;28.51;44.01;101446.25;5049576;28;20028;-76
2022/08/23 10:10:34;;;;;;;8.77;3.03;;;;;;;28.54;43.63;101442.28;5050382;28;20025;-77
2022/08/23 10:13:00;;;;;;;7.82;2.20;;;;;;;28.53;41.49;101441.44;5029379;28;20108;-77
2022/08/23 10:15:39;;;;;;;6.57;2.30;;;;;;;28.55;42.75;101449.34;5039830;28;20032;-77
2022/08/23 10:18:42;;;;;;;6.28;2.42;;;;;;;28.63;42.70;101444.50;5049425;28;20033;-76
2022/08/23 10:21:40;;;;;;;8.95;2.55;;;;;;;28.66;43.90;101445.94;5028757;28;20045;-76
2022/08/23 10:24:13;;;;;;;5.53;2.05;;;;;;;28.64;41.90;101442.63;5047807;28;20054;-77
2022/08/23 10:26:49;;;;;;;6.95;2.88;;;;;;;28.71;41.96;101437.97;5042870;28;20136;-77
2022/08/23 10:29:36;;;;;;;7.25;2.30;;;;;;;28.85;42.74;101439.59;5050038;28;20033;-77
2022/08/23 10:32:33;;;;;;;6.85;2.20;;;;;;;29.14;43.48;101437.28;5049706;28;20017;-77
2022/08/23 10:35:28;;;;;;;5.35;1.90;;;;;;;29.21;42.79;101443.47;5050532;28;20478;-76
2022/08/23 10:38:09;;;;;;;10.40;2.28;;;;;;;29.21;40.14;101438.03;5051291;28;20067;-77
2022/08/23 10:41:07;;;;;;;7.53;2.40;;;;;;;29.20;41.99;101437.22;5049726;28;20036;-75
2022/08/23 10:43:41;;;;;;;9.18;2.47;;;;;;;29.07;40.33;101436.50;5049111;28;20044;-76
2022/08/23 10:46:07;;;;;;;9.20;2.20;;;;;;;29.14;40.13;101426.44;5049873;28;20053;-76
2022/08/23 10:48:37;;;;;;;7.70;1.80;;;;;;;29.09;40.32;101439.81;5051172;28;20053;-76
2022/08/23 10:51:14;;;;;;;6.00;1.83;;;;;;;29.23;40.00;101428.66;5050939;28;20551;-76
2022/08/23 10:53:48;;;;;;;10.43;2.50;;;;;;;29.38;39.62;101422.06;5051140;28;20104;-77
2022/08/23 10:56:18;;;;;;;6.47;1.90;;;;;;;29.51;40.28;101421.94;5050780;28;20067;-77
2022/08/23 10:58:56;;;;;;;7.20;2.10;;;;;;;29.69;41.06;101418.44;5050950;28;20036;-78
2022/08/23 11:01:36;;;;;;;12.38;2.58;;;;;;;29.84;40.90;101417.00;5045297;28;20386;-77
2022/08/23 11:04:08;;;;;;;6.75;2.33;;;;;;;29.83;41.07;101418.03;5032913;28;20107;-77
2022/08/23 11:06:33;;;;;;;;;;;;;;;30.04;40.88;101430.38;5049762;28;20052;-78
2022/08/23 11:09:28;;;;;;;9.37;2.50;;;;;;;29.76;39.21;101424.59;5049121;28;20366;-76
2022/08/23 11:12:20;;;;;;;6.65;2.08;;;;;;;29.84;40.84;101417.00;5049665;28;20029;-77
2022/08/23 11:15:08;;;;;;;5.45;2.22;;;;;;;29.91;39.08;101417.72;5049274;28;20023;-77
2022/08/23 11:18:00;;;;;;;6.18;2.25;;;;;;;29.91;38.39;101422.34;5032720;28;20403;-78
2022/08/23 11:20:47;;;;;;;6.15;1.95;;;;;;;30.06;39.99;101424.72;5047797;28;20029;-77
2022/08/23 11:23:16;;;;;;;6.38;1.88;;;;;;;29.94;37.83;101420.00;5048929;28;20040;-77
2022/08/23 11:25:43;;;;;;;4.43;1.90;;;;;;;30.12;38.36;101411.03;5049417;28;20035;-78
2022/08/23 11:28:24;;;;;;;5.63;2.00;;;;;;;30.22;38.53;101421.34;5046991;28;20021;-78
2022/08/23 11:30:56;;;;;;;6.45;2.10;;;;;;;30.11;38.31;101422.13;5048388;28;20457;-78
2022/08/23 11:33:43;;;;;;;6.07;2.67;;;;;;;30.01;38.93;101416.34;5047244;28;20032;-77
2022/08/23 11:36:08;;;;;;;7.70;2.38;;;;;;;29.97;37.60;101420.59;5028684;28;20039;-77
2022/08/23 11:39:11;;;;;;;10.47;2.10;;;;;;;30.30;38.96;101425.63;5032656;28;20021;-76